sensor_id;sensor_type;location;lat;lon;timestamp;P1;durP1;ratioP1;P2;durP2;ratioP2
57467;SDS011;43311;51.196;7.518;2023-08-17T00:01:54;13.70;;;7.25;;
57467;SDS011;43311;51.196;7.518;2023-08-17T00:04:20;14.02;;;8.18;;
57467;SDS011;43311;51.196;7.518;2023-08-17T00:06:46;11.57;;;8.63;;
57467;SDS011;43311;51.196;7.518;2023-08-17T00:09:12;12.77;;;8.13;;
57467;SDS011;43311;51.196;7.518;2023-08-17T00:11:37;12.82;;;8.90;;
57467;SDS011;43311;51.196;7.518;2023-08-17T00:14:03;13.23;;;8.20;;
57467;SDS011;43311;51.196;7.518;2023-08-17T00:16:29;11.52;;;8.18;;
57467;SDS011;43311;51.196;7.518;2023-08-17T00:18:54;11.65;;;8.80;;
57467;SDS011;43311;51.196;7.518;2023-08-17T00:21:20;9.75;;;8.02;;
57467;SDS011;43311;51.196;7.518;2023-08-17T00:23:45;16.15;;;8.80;;
57467;SDS011;43311;51.196;7.518;2023-08-17T00:26:11;12.48;;;8.68;;
57467;SDS011;43311;51.196;7.518;2023-08-17T00:28:36;10.90;;;8.48;;
57467;SDS011;43311;51.196;7.518;2023-08-17T00:31:02;11.10;;;9.00;;
57467;SDS011;43311;51.196;7.518;2023-08-17T00:33:29;12.02;;;8.80;;
57467;SDS011;43311;51.196;7.518;2023-08-17T00:35:54;17.27;;;9.40;;
57467;SDS011;43311;51.196;7.518;2023-08-17T00:38:20;13.13;;;9.32;;
57467;SDS011;43311;51.196;7.518;2023-08-17T00:40:46;13.10;;;9.02;;
57467;SDS011;43311;51.196;7.518;2023-08-17T00:43:12;13.27;;;10.13;;
57467;SDS011;43311;51.196;7.518;2023-08-17T00:45:37;13.68;;;9.45;;
57467;SDS011;43311;51.196;7.518;2023-08-17T00:48:03;14.70;;;9.70;;
57467;SDS011;43311;51.196;7.518;2023-08-17T00:50:32;13.65;;;9.13;;
57467;SDS011;43311;51.196;7.518;2023-08-17T00:52:59;16.65;;;9.30;;
57467;SDS011;43311;51.196;7.518;2023-08-17T00:55:27;14.15;;;9.85;;
57467;SDS011;43311;51.196;7.518;2023-08-17T00:57:53;12.70;;;10.07;;
57467;SDS011;43311;51.196;7.518;2023-08-17T01:00:20;16.65;;;10.68;;
57467;SDS011;43311;51.196;7.518;2023-08-17T01:02:47;16.55;;;10.00;;
57467;SDS011;43311;51.196;7.518;2023-08-17T01:05:15;20.35;;;10.32;;
57467;SDS011;43311;51.196;7.518;2023-08-17T01:07:41;15.60;;;11.45;;
57467;SDS011;43311;51.196;7.518;2023-08-17T01:10:07;15.93;;;10.85;;
57467;SDS011;43311;51.196;7.518;2023-08-17T01:12:36;14.70;;;11.00;;
57467;SDS011;43311;51.196;7.518;2023-08-17T01:15:10;16.17;;;11.20;;
57467;SDS011;43311;51.196;7.518;2023-08-17T01:17:42;15.63;;;10.65;;
57467;SDS011;43311;51.196;7.518;2023-08-17T01:20:19;17.55;;;12.32;;
57467;SDS011;43311;51.196;7.518;2023-08-17T01:22:48;18.95;;;13.23;;
57467;SDS011;43311;51.196;7.518;2023-08-17T01:25:16;19.08;;;12.18;;
57467;SDS011;43311;51.196;7.518;2023-08-17T01:27:46;16.75;;;12.82;;
57467;SDS011;43311;51.196;7.518;2023-08-17T01:30:12;20.50;;;12.75;;
57467;SDS011;43311;51.196;7.518;2023-08-17T01:38:10;15.98;;;12.90;;
57467;SDS011;43311;51.196;7.518;2023-08-17T01:40:39;16.80;;;12.68;;
57467;SDS011;43311;51.196;7.518;2023-08-17T01:43:07;15.82;;;11.80;;
57467;SDS011;43311;51.196;7.518;2023-08-17T01:45:35;17.50;;;12.33;;
57467;SDS011;43311;51.196;7.518;2023-08-17T01:48:00;16.98;;;12.55;;
57467;SDS011;43311;51.196;7.518;2023-08-17T01:50:26;15.70;;;12.45;;
57467;SDS011;43311;51.196;7.518;2023-08-17T01:52:51;22.00;;;13.82;;
57467;SDS011;43311;51.196;7.518;2023-08-17T01:55:17;16.92;;;11.88;;
57467;SDS011;43311;51.196;7.518;2023-08-17T01:57:44;19.30;;;11.93;;
57467;SDS011;43311;51.196;7.518;2023-08-17T02:00:09;17.63;;;11.80;;
57467;SDS011;43311;51.196;7.518;2023-08-17T02:02:44;16.73;;;12.13;;
57467;SDS011;43311;51.196;7.518;2023-08-17T02:05:10;17.70;;;11.70;;
57467;SDS011;43311;51.196;7.518;2023-08-17T02:07:36;17.08;;;12.63;;
57467;SDS011;43311;51.196;7.518;2023-08-17T02:10:01;15.88;;;11.43;;
57467;SDS011;43311;51.196;7.518;2023-08-17T02:12:27;14.77;;;12.15;;
57467;SDS011;43311;51.196;7.518;2023-08-17T02:14:52;15.40;;;11.98;;
57467;SDS011;43311;51.196;7.518;2023-08-17T02:17:18;13.77;;;11.73;;
57467;SDS011;43311;51.196;7.518;2023-08-17T02:19:44;16.67;;;12.35;;
57467;SDS011;43311;51.196;7.518;2023-08-17T02:22:10;21.67;;;13.63;;
57467;SDS011;43311;51.196;7.518;2023-08-17T02:24:36;15.50;;;12.88;;
57467;SDS011;43311;51.196;7.518;2023-08-17T02:27:01;19.13;;;12.90;;
57467;SDS011;43311;51.196;7.518;2023-08-17T02:29:27;20.05;;;13.27;;
57467;SDS011;43311;51.196;7.518;2023-08-17T02:31:53;17.40;;;12.15;;
57467;SDS011;43311;51.196;7.518;2023-08-17T02:34:18;15.93;;;12.43;;
57467;SDS011;43311;51.196;7.518;2023-08-17T02:36:43;19.75;;;13.27;;
57467;SDS011;43311;51.196;7.518;2023-08-17T02:39:09;20.13;;;14.00;;
57467;SDS011;43311;51.196;7.518;2023-08-17T02:41:34;19.23;;;13.25;;
57467;SDS011;43311;51.196;7.518;2023-08-17T02:44:00;18.58;;;13.50;;
57467;SDS011;43311;51.196;7.518;2023-08-17T02:46:26;23.30;;;14.55;;
57467;SDS011;43311;51.196;7.518;2023-08-17T02:48:52;18.98;;;14.88;;
57467;SDS011;43311;51.196;7.518;2023-08-17T02:51:18;20.88;;;13.88;;
57467;SDS011;43311;51.196;7.518;2023-08-17T02:53:43;20.63;;;13.60;;
57467;SDS011;43311;51.196;7.518;2023-08-17T02:56:09;21.63;;;14.27;;
57467;SDS011;43311;51.196;7.518;2023-08-17T02:58:38;20.40;;;13.27;;
57467;SDS011;43311;51.196;7.518;2023-08-17T03:01:06;20.73;;;14.70;;
57467;SDS011;43311;51.196;7.518;2023-08-17T03:03:35;19.95;;;15.23;;
57467;SDS011;43311;51.196;7.518;2023-08-17T03:06:02;23.02;;;15.60;;
57467;SDS011;43311;51.196;7.518;2023-08-17T03:08:27;24.10;;;16.27;;
57467;SDS011;43311;51.196;7.518;2023-08-17T03:10:53;27.17;;;15.75;;
57467;SDS011;43311;51.196;7.518;2023-08-17T03:13:19;23.48;;;14.85;;
57467;SDS011;43311;51.196;7.518;2023-08-17T03:15:44;24.38;;;16.95;;
57467;SDS011;43311;51.196;7.518;2023-08-17T03:18:10;34.50;;;16.05;;
57467;SDS011;43311;51.196;7.518;2023-08-17T03:20:37;25.05;;;16.00;;
57467;SDS011;43311;51.196;7.518;2023-08-17T03:23:02;27.58;;;15.73;;
57467;SDS011;43311;51.196;7.518;2023-08-17T03:25:31;23.95;;;15.35;;
57467;SDS011;43311;51.196;7.518;2023-08-17T03:27:57;29.58;;;16.40;;
57467;SDS011;43311;51.196;7.518;2023-08-17T03:30:22;22.95;;;15.88;;
57467;SDS011;43311;51.196;7.518;2023-08-17T03:32:48;22.83;;;16.08;;
57467;SDS011;43311;51.196;7.518;2023-08-17T03:35:13;26.77;;;15.57;;
57467;SDS011;43311;51.196;7.518;2023-08-17T03:37:40;20.98;;;15.55;;
57467;SDS011;43311;51.196;7.518;2023-08-17T03:40:05;23.40;;;15.93;;
57467;SDS011;43311;51.196;7.518;2023-08-17T03:42:31;27.95;;;15.40;;
57467;SDS011;43311;51.196;7.518;2023-08-17T03:44:57;24.90;;;14.70;;
57467;SDS011;43311;51.196;7.518;2023-08-17T03:47:22;20.52;;;14.25;;
57467;SDS011;43311;51.196;7.518;2023-08-17T03:49:48;23.65;;;14.80;;
57467;SDS011;43311;51.196;7.518;2023-08-17T03:52:13;23.38;;;14.43;;
57467;SDS011;43311;51.196;7.518;2023-08-17T03:54:39;18.85;;;14.27;;
57467;SDS011;43311;51.196;7.518;2023-08-17T03:57:05;20.92;;;15.30;;
57467;SDS011;43311;51.196;7.518;2023-08-17T03:59:30;19.20;;;15.05;;
57467;SDS011;43311;51.196;7.518;2023-08-17T04:01:56;25.42;;;15.60;;
57467;SDS011;43311;51.196;7.518;2023-08-17T04:04:21;24.27;;;16.60;;
57467;SDS011;43311;51.196;7.518;2023-08-17T04:06:47;23.92;;;15.98;;
57467;SDS011;43311;51.196;7.518;2023-08-17T04:09:12;25.92;;;16.77;;
57467;SDS011;43311;51.196;7.518;2023-08-17T04:11:38;22.92;;;16.10;;
57467;SDS011;43311;51.196;7.518;2023-08-17T04:14:04;28.35;;;16.80;;
57467;SDS011;43311;51.196;7.518;2023-08-17T04:16:32;21.10;;;15.77;;
57467;SDS011;43311;51.196;7.518;2023-08-17T04:18:58;26.35;;;17.10;;
57467;SDS011;43311;51.196;7.518;2023-08-17T04:21:24;25.08;;;16.15;;
57467;SDS011;43311;51.196;7.518;2023-08-17T04:23:49;28.90;;;17.20;;
57467;SDS011;43311;51.196;7.518;2023-08-17T04:26:15;27.88;;;16.65;;
57467;SDS011;43311;51.196;7.518;2023-08-17T04:28:40;27.90;;;17.20;;
57467;SDS011;43311;51.196;7.518;2023-08-17T04:31:06;29.60;;;17.30;;
57467;SDS011;43311;51.196;7.518;2023-08-17T04:33:35;24.80;;;17.60;;
57467;SDS011;43311;51.196;7.518;2023-08-17T04:36:00;23.50;;;16.40;;
57467;SDS011;43311;51.196;7.518;2023-08-17T04:38:31;26.30;;;16.83;;
57467;SDS011;43311;51.196;7.518;2023-08-17T04:41:02;32.42;;;17.83;;
57467;SDS011;43311;51.196;7.518;2023-08-17T04:43:28;27.75;;;17.38;;
57467;SDS011;43311;51.196;7.518;2023-08-17T04:45:54;39.78;;;18.88;;
57467;SDS011;43311;51.196;7.518;2023-08-17T04:48:20;30.17;;;18.40;;
57467;SDS011;43311;51.196;7.518;2023-08-17T04:50:48;27.95;;;17.38;;
57467;SDS011;43311;51.196;7.518;2023-08-17T04:53:13;22.40;;;16.02;;
57467;SDS011;43311;51.196;7.518;2023-08-17T04:55:39;26.73;;;17.80;;
57467;SDS011;43311;51.196;7.518;2023-08-17T04:58:04;30.90;;;17.23;;
57467;SDS011;43311;51.196;7.518;2023-08-17T05:00:30;23.95;;;17.00;;
57467;SDS011;43311;51.196;7.518;2023-08-17T05:02:56;31.95;;;17.33;;
57467;SDS011;43311;51.196;7.518;2023-08-17T05:05:24;26.92;;;17.17;;
57467;SDS011;43311;51.196;7.518;2023-08-17T05:07:52;30.70;;;17.40;;
57467;SDS011;43311;51.196;7.518;2023-08-17T05:10:18;27.10;;;17.13;;
57467;SDS011;43311;51.196;7.518;2023-08-17T05:12:43;38.28;;;17.40;;
57467;SDS011;43311;51.196;7.518;2023-08-17T05:15:09;26.55;;;17.08;;
57467;SDS011;43311;51.196;7.518;2023-08-17T05:17:34;26.65;;;16.80;;
57467;SDS011;43311;51.196;7.518;2023-08-17T05:20:01;28.10;;;17.50;;
57467;SDS011;43311;51.196;7.518;2023-08-17T05:22:27;31.83;;;16.75;;
57467;SDS011;43311;51.196;7.518;2023-08-17T05:24:54;29.25;;;17.20;;
57467;SDS011;43311;51.196;7.518;2023-08-17T05:27:30;36.72;;;18.00;;
57467;SDS011;43311;51.196;7.518;2023-08-17T05:37:03;30.85;;;15.65;;
57467;SDS011;43311;51.196;7.518;2023-08-17T05:39:29;26.27;;;16.75;;
57467;SDS011;43311;51.196;7.518;2023-08-17T05:41:54;31.30;;;17.02;;
57467;SDS011;43311;51.196;7.518;2023-08-17T05:44:20;31.75;;;16.35;;
57467;SDS011;43311;51.196;7.518;2023-08-17T05:46:45;29.20;;;15.98;;
57467;SDS011;43311;51.196;7.518;2023-08-17T05:57:16;28.80;;;16.20;;
57467;SDS011;43311;51.196;7.518;2023-08-17T05:59:42;26.17;;;16.50;;
57467;SDS011;43311;51.196;7.518;2023-08-17T06:02:07;24.70;;;16.05;;
57467;SDS011;43311;51.196;7.518;2023-08-17T06:04:32;25.75;;;15.13;;
57467;SDS011;43311;51.196;7.518;2023-08-17T06:06:58;29.65;;;17.52;;
57467;SDS011;43311;51.196;7.518;2023-08-17T06:09:23;28.05;;;15.82;;
57467;SDS011;43311;51.196;7.518;2023-08-17T06:11:49;29.27;;;15.93;;
57467;SDS011;43311;51.196;7.518;2023-08-17T06:14:14;29.67;;;16.60;;
57467;SDS011;43311;51.196;7.518;2023-08-17T06:16:40;27.55;;;16.23;;
57467;SDS011;43311;51.196;7.518;2023-08-17T06:19:05;29.98;;;13.98;;
57467;SDS011;43311;51.196;7.518;2023-08-17T06:21:31;25.63;;;13.70;;
57467;SDS011;43311;51.196;7.518;2023-08-17T06:23:56;20.08;;;12.85;;
57467;SDS011;43311;51.196;7.518;2023-08-17T06:26:21;28.20;;;13.70;;
57467;SDS011;43311;51.196;7.518;2023-08-17T06:28:47;26.83;;;14.40;;
57467;SDS011;43311;51.196;7.518;2023-08-17T06:31:14;25.73;;;14.50;;
57467;SDS011;43311;51.196;7.518;2023-08-17T06:33:40;23.58;;;14.57;;
57467;SDS011;43311;51.196;7.518;2023-08-17T06:36:05;23.40;;;14.73;;
57467;SDS011;43311;51.196;7.518;2023-08-17T06:38:31;27.98;;;14.43;;
57467;SDS011;43311;51.196;7.518;2023-08-17T06:40:56;22.17;;;13.95;;
57467;SDS011;43311;51.196;7.518;2023-08-17T06:43:21;22.63;;;13.90;;
57467;SDS011;43311;51.196;7.518;2023-08-17T06:45:47;27.08;;;12.77;;
57467;SDS011;43311;51.196;7.518;2023-08-17T06:48:12;21.40;;;13.38;;
57467;SDS011;43311;51.196;7.518;2023-08-17T06:50:38;18.95;;;12.32;;
57467;SDS011;43311;51.196;7.518;2023-08-17T06:53:04;19.73;;;13.18;;
57467;SDS011;43311;51.196;7.518;2023-08-17T06:55:30;34.10;;;13.75;;
57467;SDS011;43311;51.196;7.518;2023-08-17T06:57:55;27.90;;;13.20;;
57467;SDS011;43311;51.196;7.518;2023-08-17T07:00:21;21.27;;;13.77;;
57467;SDS011;43311;51.196;7.518;2023-08-17T07:02:47;22.08;;;13.20;;
57467;SDS011;43311;51.196;7.518;2023-08-17T07:05:16;35.45;;;14.02;;
57467;SDS011;43311;51.196;7.518;2023-08-17T07:07:42;19.15;;;13.20;;
57467;SDS011;43311;51.196;7.518;2023-08-17T07:10:08;21.67;;;13.05;;
57467;SDS011;43311;51.196;7.518;2023-08-17T07:12:35;22.20;;;12.73;;
57467;SDS011;43311;51.196;7.518;2023-08-17T07:15:02;19.30;;;13.15;;
57467;SDS011;43311;51.196;7.518;2023-08-17T07:17:41;29.50;;;13.93;;
57467;SDS011;43311;51.196;7.518;2023-08-17T07:20:07;23.27;;;12.90;;
57467;SDS011;43311;51.196;7.518;2023-08-17T07:22:32;26.10;;;13.45;;
57467;SDS011;43311;51.196;7.518;2023-08-17T07:24:58;22.23;;;14.05;;
57467;SDS011;43311;51.196;7.518;2023-08-17T07:27:23;22.02;;;14.68;;
57467;SDS011;43311;51.196;7.518;2023-08-17T07:29:49;23.88;;;15.27;;
57467;SDS011;43311;51.196;7.518;2023-08-17T07:32:14;25.05;;;15.27;;
57467;SDS011;43311;51.196;7.518;2023-08-17T07:34:40;21.20;;;13.73;;
57467;SDS011;43311;51.196;7.518;2023-08-17T07:37:05;22.08;;;13.68;;
57467;SDS011;43311;51.196;7.518;2023-08-17T07:39:31;20.98;;;14.32;;
57467;SDS011;43311;51.196;7.518;2023-08-17T07:41:57;20.60;;;13.65;;
57467;SDS011;43311;51.196;7.518;2023-08-17T07:44:22;18.75;;;13.23;;
57467;SDS011;43311;51.196;7.518;2023-08-17T07:46:47;19.92;;;13.50;;
57467;SDS011;43311;51.196;7.518;2023-08-17T07:49:13;23.23;;;13.88;;
57467;SDS011;43311;51.196;7.518;2023-08-17T07:51:38;20.45;;;13.98;;
57467;SDS011;43311;51.196;7.518;2023-08-17T07:54:04;19.77;;;12.95;;
57467;SDS011;43311;51.196;7.518;2023-08-17T07:56:29;17.90;;;12.15;;
57467;SDS011;43311;51.196;7.518;2023-08-17T07:58:54;19.38;;;13.57;;
57467;SDS011;43311;51.196;7.518;2023-08-17T08:01:20;19.92;;;12.57;;
57467;SDS011;43311;51.196;7.518;2023-08-17T08:03:45;19.23;;;12.18;;
57467;SDS011;43311;51.196;7.518;2023-08-17T08:06:11;17.85;;;12.05;;
57467;SDS011;43311;51.196;7.518;2023-08-17T08:08:37;18.13;;;12.18;;
57467;SDS011;43311;51.196;7.518;2023-08-17T08:11:03;18.55;;;12.07;;
57467;SDS011;43311;51.196;7.518;2023-08-17T08:13:29;16.98;;;12.32;;
57467;SDS011;43311;51.196;7.518;2023-08-17T08:15:55;17.60;;;12.02;;
57467;SDS011;43311;51.196;7.518;2023-08-17T08:18:21;14.18;;;10.60;;
57467;SDS011;43311;51.196;7.518;2023-08-17T08:20:46;14.65;;;10.48;;
57467;SDS011;43311;51.196;7.518;2023-08-17T08:23:11;14.15;;;10.23;;
57467;SDS011;43311;51.196;7.518;2023-08-17T08:25:37;12.77;;;9.68;;
57467;SDS011;43311;51.196;7.518;2023-08-17T08:28:02;13.27;;;9.00;;
57467;SDS011;43311;51.196;7.518;2023-08-17T08:30:28;13.20;;;10.05;;
57467;SDS011;43311;51.196;7.518;2023-08-17T08:32:53;15.07;;;9.70;;
57467;SDS011;43311;51.196;7.518;2023-08-17T08:35:20;13.07;;;9.43;;
57467;SDS011;43311;51.196;7.518;2023-08-17T08:37:47;12.88;;;9.63;;
57467;SDS011;43311;51.196;7.518;2023-08-17T08:40:12;14.70;;;8.73;;
57467;SDS011;43311;51.196;7.518;2023-08-17T08:42:39;11.05;;;8.45;;
57467;SDS011;43311;51.196;7.518;2023-08-17T08:45:05;11.35;;;8.35;;
57467;SDS011;43311;51.196;7.518;2023-08-17T08:47:31;10.75;;;7.85;;
57467;SDS011;43311;51.196;7.518;2023-08-17T08:50:01;9.63;;;7.60;;
57467;SDS011;43311;51.196;7.518;2023-08-17T08:52:35;10.15;;;7.40;;
57467;SDS011;43311;51.196;7.518;2023-08-17T08:55:10;13.50;;;8.18;;
57467;SDS011;43311;51.196;7.518;2023-08-17T08:57:40;9.90;;;7.93;;
57467;SDS011;43311;51.196;7.518;2023-08-17T09:00:06;11.55;;;7.97;;
57467;SDS011;43311;51.196;7.518;2023-08-17T09:02:32;11.05;;;7.45;;
57467;SDS011;43311;51.196;7.518;2023-08-17T09:04:58;10.45;;;7.38;;
57467;SDS011;43311;51.196;7.518;2023-08-17T09:07:25;9.45;;;7.65;;
57467;SDS011;43311;51.196;7.518;2023-08-17T09:09:52;10.65;;;7.95;;
57467;SDS011;43311;51.196;7.518;2023-08-17T09:12:17;10.73;;;7.95;;
57467;SDS011;43311;51.196;7.518;2023-08-17T09:14:43;9.98;;;7.13;;
57467;SDS011;43311;51.196;7.518;2023-08-17T09:17:08;9.20;;;7.25;;
57467;SDS011;43311;51.196;7.518;2023-08-17T09:19:34;9.75;;;7.63;;
57467;SDS011;43311;51.196;7.518;2023-08-17T09:22:00;10.20;;;7.70;;
57467;SDS011;43311;51.196;7.518;2023-08-17T09:24:35;9.23;;;7.55;;
57467;SDS011;43311;51.196;7.518;2023-08-17T09:27:02;11.55;;;7.68;;
57467;SDS011;43311;51.196;7.518;2023-08-17T09:29:28;8.80;;;6.65;;
57467;SDS011;43311;51.196;7.518;2023-08-17T09:31:58;11.05;;;6.25;;
57467;SDS011;43311;51.196;7.518;2023-08-17T09:34:30;9.48;;;7.13;;
57467;SDS011;43311;51.196;7.518;2023-08-17T09:36:56;9.38;;;6.70;;
57467;SDS011;43311;51.196;7.518;2023-08-17T09:39:21;9.15;;;7.35;;
57467;SDS011;43311;51.196;7.518;2023-08-17T09:41:47;9.15;;;6.85;;
57467;SDS011;43311;51.196;7.518;2023-08-17T09:44:12;9.35;;;6.80;;
57467;SDS011;43311;51.196;7.518;2023-08-17T09:46:38;8.13;;;6.70;;
57467;SDS011;43311;51.196;7.518;2023-08-17T09:49:05;9.38;;;6.80;;
57467;SDS011;43311;51.196;7.518;2023-08-17T09:51:31;9.88;;;6.95;;
57467;SDS011;43311;51.196;7.518;2023-08-17T09:53:57;8.35;;;6.90;;
57467;SDS011;43311;51.196;7.518;2023-08-17T09:56:22;8.02;;;6.82;;
57467;SDS011;43311;51.196;7.518;2023-08-17T09:58:49;9.80;;;7.13;;
57467;SDS011;43311;51.196;7.518;2023-08-17T10:01:15;9.52;;;7.72;;
57467;SDS011;43311;51.196;7.518;2023-08-17T10:03:42;11.23;;;8.35;;
57467;SDS011;43311;51.196;7.518;2023-08-17T10:06:09;8.15;;;6.65;;
57467;SDS011;43311;51.196;7.518;2023-08-17T10:08:42;9.43;;;5.78;;
57467;SDS011;43311;51.196;7.518;2023-08-17T10:11:08;11.02;;;6.90;;
57467;SDS011;43311;51.196;7.518;2023-08-17T10:13:35;8.85;;;6.65;;
57467;SDS011;43311;51.196;7.518;2023-08-17T10:24:58;12.10;;;8.05;;
57467;SDS011;43311;51.196;7.518;2023-08-17T10:27:26;10.83;;;8.40;;
57467;SDS011;43311;51.196;7.518;2023-08-17T10:29:52;12.48;;;8.50;;
57467;SDS011;43311;51.196;7.518;2023-08-17T10:32:17;10.45;;;7.93;;
57467;SDS011;43311;51.196;7.518;2023-08-17T10:34:43;10.65;;;7.07;;
57467;SDS011;43311;51.196;7.518;2023-08-17T10:37:09;10.93;;;8.02;;
57467;SDS011;43311;51.196;7.518;2023-08-17T10:39:36;11.70;;;8.52;;
57467;SDS011;43311;51.196;7.518;2023-08-17T10:42:10;9.55;;;7.85;;
57467;SDS011;43311;51.196;7.518;2023-08-17T10:44:39;13.10;;;7.82;;
57467;SDS011;43311;51.196;7.518;2023-08-17T10:52:12;14.65;;;8.90;;
57467;SDS011;43311;51.196;7.518;2023-08-17T10:54:38;12.10;;;8.35;;
57467;SDS011;43311;51.196;7.518;2023-08-17T11:00:06;12.95;;;8.77;;
57467;SDS011;43311;51.196;7.518;2023-08-17T11:02:53;14.07;;;9.80;;
57467;SDS011;43311;51.196;7.518;2023-08-17T11:05:42;13.23;;;9.20;;
57467;SDS011;43311;51.196;7.518;2023-08-17T11:08:19;11.25;;;8.38;;
57467;SDS011;43311;51.196;7.518;2023-08-17T11:13:23;14.75;;;9.25;;
57467;SDS011;43311;51.196;7.518;2023-08-17T11:15:49;13.70;;;9.70;;
57467;SDS011;43311;51.196;7.518;2023-08-17T11:18:14;14.23;;;9.88;;
57467;SDS011;43311;51.196;7.518;2023-08-17T11:20:40;12.65;;;9.23;;
57467;SDS011;43311;51.196;7.518;2023-08-17T11:23:08;14.60;;;9.35;;
57467;SDS011;43311;51.196;7.518;2023-08-17T11:25:34;18.83;;;10.13;;
57467;SDS011;43311;51.196;7.518;2023-08-17T11:28:01;14.63;;;9.13;;
57467;SDS011;43311;51.196;7.518;2023-08-17T11:30:27;16.33;;;9.02;;
57467;SDS011;43311;51.196;7.518;2023-08-17T11:32:53;13.55;;;9.65;;
57467;SDS011;43311;51.196;7.518;2023-08-17T11:35:20;14.55;;;9.85;;
57467;SDS011;43311;51.196;7.518;2023-08-17T11:37:46;17.05;;;11.35;;
57467;SDS011;43311;51.196;7.518;2023-08-17T11:40:13;19.90;;;10.95;;
57467;SDS011;43311;51.196;7.518;2023-08-17T11:42:39;13.23;;;9.35;;
57467;SDS011;43311;51.196;7.518;2023-08-17T11:45:06;16.30;;;9.82;;
57467;SDS011;43311;51.196;7.518;2023-08-17T11:47:34;13.77;;;9.25;;
57467;SDS011;43311;51.196;7.518;2023-08-17T11:50:04;13.55;;;9.63;;
57467;SDS011;43311;51.196;7.518;2023-08-17T11:52:31;14.50;;;9.85;;
57467;SDS011;43311;51.196;7.518;2023-08-17T11:55:05;15.57;;;9.95;;
57467;SDS011;43311;51.196;7.518;2023-08-17T11:57:31;13.98;;;9.55;;
57467;SDS011;43311;51.196;7.518;2023-08-17T11:59:57;15.25;;;9.60;;
57467;SDS011;43311;51.196;7.518;2023-08-17T12:02:24;11.82;;;8.85;;
57467;SDS011;43311;51.196;7.518;2023-08-17T12:04:51;11.40;;;9.07;;
57467;SDS011;43311;51.196;7.518;2023-08-17T12:07:17;11.50;;;8.25;;
57467;SDS011;43311;51.196;7.518;2023-08-17T12:09:46;14.13;;;8.98;;
57467;SDS011;43311;51.196;7.518;2023-08-17T12:12:11;11.32;;;8.88;;
57467;SDS011;43311;51.196;7.518;2023-08-17T12:14:40;13.50;;;8.18;;
57467;SDS011;43311;51.196;7.518;2023-08-17T12:17:10;12.07;;;8.20;;
57467;SDS011;43311;51.196;7.518;2023-08-17T12:19:39;10.40;;;7.55;;
57467;SDS011;43311;51.196;7.518;2023-08-17T12:22:04;13.50;;;8.50;;
57467;SDS011;43311;51.196;7.518;2023-08-17T12:24:30;9.43;;;7.80;;
57467;SDS011;43311;51.196;7.518;2023-08-17T12:26:56;8.82;;;7.53;;
57467;SDS011;43311;51.196;7.518;2023-08-17T12:29:23;8.88;;;6.53;;
57467;SDS011;43311;51.196;7.518;2023-08-17T12:31:48;10.85;;;6.75;;
57467;SDS011;43311;51.196;7.518;2023-08-17T12:34:14;8.98;;;6.65;;
57467;SDS011;43311;51.196;7.518;2023-08-17T12:36:42;10.43;;;7.53;;
57467;SDS011;43311;51.196;7.518;2023-08-17T12:39:08;10.13;;;6.95;;
57467;SDS011;43311;51.196;7.518;2023-08-17T12:41:34;9.27;;;6.90;;
57467;SDS011;43311;51.196;7.518;2023-08-17T12:43:59;8.95;;;6.80;;
57467;SDS011;43311;51.196;7.518;2023-08-17T12:46:26;8.48;;;6.28;;
57467;SDS011;43311;51.196;7.518;2023-08-17T12:48:51;8.57;;;6.18;;
57467;SDS011;43311;51.196;7.518;2023-08-17T12:51:17;8.43;;;5.63;;
57467;SDS011;43311;51.196;7.518;2023-08-17T12:53:42;8.18;;;5.82;;
57467;SDS011;43311;51.196;7.518;2023-08-17T12:56:08;7.85;;;5.82;;
57467;SDS011;43311;51.196;7.518;2023-08-17T12:58:33;7.97;;;5.80;;
57467;SDS011;43311;51.196;7.518;2023-08-17T13:00:59;5.35;;;4.78;;
57467;SDS011;43311;51.196;7.518;2023-08-17T13:03:24;8.13;;;5.38;;
57467;SDS011;43311;51.196;7.518;2023-08-17T13:05:50;6.57;;;5.40;;
57467;SDS011;43311;51.196;7.518;2023-08-17T13:08:15;7.05;;;5.90;;
57467;SDS011;43311;51.196;7.518;2023-08-17T13:10:41;6.20;;;5.15;;
57467;SDS011;43311;51.196;7.518;2023-08-17T13:13:06;6.13;;;5.18;;
57467;SDS011;43311;51.196;7.518;2023-08-17T13:15:32;9.52;;;6.05;;
57467;SDS011;43311;51.196;7.518;2023-08-17T13:17:58;7.30;;;5.25;;
57467;SDS011;43311;51.196;7.518;2023-08-17T13:20:24;6.13;;;5.13;;
57467;SDS011;43311;51.196;7.518;2023-08-17T13:22:49;5.60;;;4.60;;
57467;SDS011;43311;51.196;7.518;2023-08-17T13:25:15;7.47;;;5.50;;
57467;SDS011;43311;51.196;7.518;2023-08-17T13:27:41;6.18;;;4.53;;
57467;SDS011;43311;51.196;7.518;2023-08-17T13:30:06;6.13;;;4.80;;
57467;SDS011;43311;51.196;7.518;2023-08-17T13:32:32;6.95;;;5.88;;
57467;SDS011;43311;51.196;7.518;2023-08-17T13:37:29;5.63;;;4.85;;
57467;SDS011;43311;51.196;7.518;2023-08-17T13:39:54;6.65;;;5.30;;
57467;SDS011;43311;51.196;7.518;2023-08-17T13:42:20;8.40;;;5.70;;
57467;SDS011;43311;51.196;7.518;2023-08-17T13:44:45;6.43;;;4.80;;
57467;SDS011;43311;51.196;7.518;2023-08-17T13:47:11;6.00;;;5.07;;
57467;SDS011;43311;51.196;7.518;2023-08-17T13:49:37;7.22;;;5.20;;
57467;SDS011;43311;51.196;7.518;2023-08-17T13:52:02;6.90;;;5.63;;
57467;SDS011;43311;51.196;7.518;2023-08-17T13:54:28;6.38;;;5.40;;
57467;SDS011;43311;51.196;7.518;2023-08-17T13:56:53;8.23;;;5.72;;
57467;SDS011;43311;51.196;7.518;2023-08-17T13:59:19;8.25;;;5.75;;
57467;SDS011;43311;51.196;7.518;2023-08-17T14:01:44;7.60;;;6.20;;
57467;SDS011;43311;51.196;7.518;2023-08-17T14:04:09;6.95;;;5.53;;
57467;SDS011;43311;51.196;7.518;2023-08-17T14:06:40;7.32;;;5.35;;
57467;SDS011;43311;51.196;7.518;2023-08-17T14:09:06;7.38;;;5.97;;
57467;SDS011;43311;51.196;7.518;2023-08-17T14:11:32;8.65;;;5.75;;
57467;SDS011;43311;51.196;7.518;2023-08-17T14:13:57;6.82;;;6.03;;
57467;SDS011;43311;51.196;7.518;2023-08-17T14:16:23;7.15;;;5.95;;
57467;SDS011;43311;51.196;7.518;2023-08-17T14:18:48;9.85;;;6.63;;
57467;SDS011;43311;51.196;7.518;2023-08-17T14:21:14;8.32;;;5.82;;
57467;SDS011;43311;51.196;7.518;2023-08-17T14:23:39;7.20;;;5.60;;
57467;SDS011;43311;51.196;7.518;2023-08-17T14:26:05;7.95;;;6.38;;
57467;SDS011;43311;51.196;7.518;2023-08-17T14:28:30;6.65;;;5.75;;
57467;SDS011;43311;51.196;7.518;2023-08-17T14:30:56;9.07;;;6.00;;
57467;SDS011;43311;51.196;7.518;2023-08-17T14:33:21;7.25;;;6.25;;
57467;SDS011;43311;51.196;7.518;2023-08-17T14:35:47;8.10;;;6.20;;
57467;SDS011;43311;51.196;7.518;2023-08-17T14:38:12;7.43;;;5.45;;
57467;SDS011;43311;51.196;7.518;2023-08-17T14:40:49;7.40;;;5.60;;
57467;SDS011;43311;51.196;7.518;2023-08-17T14:43:15;7.43;;;5.53;;
57467;SDS011;43311;51.196;7.518;2023-08-17T14:45:41;13.32;;;5.90;;
57467;SDS011;43311;51.196;7.518;2023-08-17T14:48:07;8.15;;;5.47;;
57467;SDS011;43311;51.196;7.518;2023-08-17T14:50:36;6.85;;;5.93;;
57467;SDS011;43311;51.196;7.518;2023-08-17T14:53:03;7.03;;;5.85;;
57467;SDS011;43311;51.196;7.518;2023-08-17T14:55:31;7.90;;;5.80;;
57467;SDS011;43311;51.196;7.518;2023-08-17T14:57:58;8.27;;;5.53;;
57467;SDS011;43311;51.196;7.518;2023-08-17T15:00:24;10.52;;;6.00;;
57467;SDS011;43311;51.196;7.518;2023-08-17T15:02:50;12.15;;;6.13;;
57467;SDS011;43311;51.196;7.518;2023-08-17T15:05:15;7.57;;;4.97;;
57467;SDS011;43311;51.196;7.518;2023-08-17T15:07:41;10.52;;;5.82;;
57467;SDS011;43311;51.196;7.518;2023-08-17T15:10:06;6.97;;;5.03;;